Terminal Aerodrome Forecast
Issued by NWS

Home | Current Version | Previous Version | Text Only | Print | Product List | Glossary On
Versions: 1 2 3 4 5 6 7 8 9 10 11 12 13 14 15 16 17 18 19 20 21 22 23 24 25
000
FTUS41 KBGM 272300
TAFITH
TAF
KITH 272332Z 2800/2824 VRB03KT P6SM SCT025 BKN060
     FM281100 29005KT 2SM -SHSN OVC025
     FM281600 27008KT P6SM SCT025 BKN035=

USA.gov is the U.S. government's official web portal to all federal, state and local government web resources and services.